createdAt,value
2022-09-02T00:01:27.683Z,5.85
2022-09-02T00:03:58.680Z,6.07
2022-09-02T00:06:27.769Z,6.50
2022-09-02T00:08:55.601Z,6.70
2022-09-02T00:11:27.344Z,6.47
2022-09-02T00:13:57.130Z,6.63
2022-09-02T00:16:31.905Z,6.68
2022-09-02T00:19:02.589Z,6.22
2022-09-02T00:21:32.947Z,6.43
2022-09-02T00:24:00.801Z,7.03
2022-09-02T00:26:28.565Z,7.03
2022-09-02T00:28:56.569Z,6.53
2022-09-02T00:31:28.826Z,6.75
2022-09-02T00:33:57.093Z,6.55
2022-09-02T00:36:25.247Z,7.00
2022-09-02T00:38:54.105Z,6.50
2022-09-02T00:41:25.708Z,6.93
2022-09-02T00:43:56.622Z,6.72
2022-09-02T00:46:28.583Z,6.72
2022-09-02T00:49:02.202Z,7.18
2022-09-02T00:51:37.707Z,5.95
2022-09-02T00:54:07.441Z,6.07
2022-09-02T00:56:39.289Z,6.63
2022-09-02T00:59:08.056Z,6.60
2022-09-02T01:01:37.576Z,6.93
2022-09-02T01:04:07.370Z,6.60
2022-09-02T01:06:35.435Z,7.28
2022-09-02T01:09:10.466Z,6.95
2022-09-02T01:11:41.529Z,6.60
2022-09-02T01:14:12.428Z,6.40
2022-09-02T01:16:45.047Z,6.00
2022-09-02T01:19:20.993Z,6.40
2022-09-02T01:21:50.993Z,5.90
2022-09-02T01:24:35.812Z,5.50
2022-09-02T01:27:05.418Z,5.50
2022-09-02T01:29:35.332Z,5.80
2022-09-02T01:32:05.449Z,5.30
2022-09-02T01:34:33.190Z,5.38
2022-09-02T01:37:02.581Z,5.40
2022-09-02T01:39:30.960Z,5.25
2022-09-02T01:42:00.548Z,5.13
2022-09-02T01:44:29.124Z,5.28
2022-09-02T01:46:57.193Z,5.00
2022-09-02T01:49:25.145Z,5.45
2022-09-02T01:51:56.809Z,5.63
2022-09-02T01:54:26.237Z,5.25
2022-09-02T01:56:54.102Z,5.53
2022-09-02T01:59:24.088Z,5.22
2022-09-02T02:01:51.934Z,5.95
2022-09-02T02:04:22.836Z,6.18
2022-09-02T02:06:53.438Z,5.55
2022-09-02T02:09:22.572Z,5.78
2022-09-02T02:11:54.254Z,5.28
2022-09-02T02:14:22.521Z,6.25
2022-09-02T02:16:51.848Z,4.88
2022-09-02T02:19:19.774Z,5.40
2022-09-02T02:21:49.394Z,5.38
2022-09-02T02:24:17.200Z,5.78
2022-09-02T02:26:45.266Z,6.32
2022-09-02T02:29:15.244Z,5.97
2022-09-02T02:31:44.380Z,5.45
2022-09-02T02:34:13.949Z,5.93
2022-09-02T02:36:43.078Z,5.18
2022-09-02T02:39:12.708Z,4.72
2022-09-02T02:41:45.110Z,5.50
2022-09-02T02:44:16.076Z,5.28
2022-09-02T02:46:44.700Z,5.10
2022-09-02T02:49:13.326Z,5.28
2022-09-02T02:51:42.525Z,5.57
2022-09-02T02:54:11.245Z,4.93
2022-09-02T02:56:39.575Z,5.00
2022-09-02T02:59:07.858Z,5.20
2022-09-02T03:01:37.331Z,4.93
2022-09-02T03:04:07.888Z,5.28
2022-09-02T03:06:36.346Z,4.93
2022-09-02T03:09:05.707Z,5.50
2022-09-02T03:11:34.694Z,4.72
2022-09-02T03:14:02.526Z,5.15
2022-09-02T03:16:30.447Z,5.47
2022-09-02T03:19:00.740Z,4.88
2022-09-02T03:21:29.941Z,5.22
2022-09-02T03:24:02.023Z,5.32
2022-09-02T03:26:30.193Z,5.30
2022-09-02T03:28:58.280Z,4.95
2022-09-02T03:31:28.571Z,5.13
2022-09-02T03:33:57.553Z,4.63
2022-09-02T03:36:29.652Z,5.15
2022-09-02T03:38:59.743Z,5.30
2022-09-02T03:41:30.886Z,4.75
2022-09-02T03:44:02.450Z,4.90
2022-09-02T03:46:31.523Z,4.97
2022-09-02T03:48:59.564Z,4.57
2022-09-02T03:51:29.890Z,4.90
2022-09-02T03:54:04.061Z,5.05
2022-09-02T03:58:59.992Z,4.60
2022-09-02T04:01:29.074Z,4.82
2022-09-02T04:04:03.621Z,4.72
2022-09-02T04:06:34.490Z,5.07
2022-09-02T04:09:04.031Z,5.10
2022-09-02T04:11:33.136Z,5.72
2022-09-02T04:14:01.498Z,5.60
2022-09-02T04:17:25.602Z,6.82
2022-09-02T04:20:49.260Z,6.90
2022-09-02T04:23:18.967Z,13.23
2022-09-02T04:25:47.896Z,11.68
2022-09-02T04:28:17.452Z,5.75
2022-09-02T04:30:45.521Z,5.55
2022-09-02T04:33:15.331Z,6.05
2022-09-02T04:35:45.245Z,5.63
2022-09-02T04:38:16.999Z,6.03
2022-09-02T04:40:48.649Z,5.88
2022-09-02T04:43:18.879Z,5.40
2022-09-02T04:45:48.362Z,5.85
2022-09-02T04:48:18.912Z,5.35
2022-09-02T04:50:49.059Z,5.50
2022-09-02T04:53:17.521Z,6.22
2022-09-02T04:55:46.886Z,6.30
2022-09-02T04:58:16.665Z,5.30
2022-09-02T05:00:45.623Z,5.53
2022-09-02T05:03:15.961Z,5.80
2022-09-02T05:05:46.542Z,5.70
2022-09-02T05:08:22.387Z,5.70
2022-09-02T05:10:53.433Z,5.18
2022-09-02T05:13:23.734Z,5.63
2022-09-02T05:15:54.824Z,5.35
2022-09-02T05:18:23.495Z,5.50
2022-09-02T05:20:54.169Z,4.95
2022-09-02T05:23:22.082Z,5.00
2022-09-02T05:25:51.539Z,5.40
2022-09-02T05:28:19.914Z,5.15
2022-09-02T05:30:48.269Z,5.45
2022-09-02T05:33:17.672Z,6.07
2022-09-02T05:35:53.149Z,6.88
2022-09-02T05:38:21.257Z,5.72
2022-09-02T05:40:51.223Z,6.20
2022-09-02T05:43:20.667Z,5.97
2022-09-02T05:45:49.185Z,5.55
2022-09-02T05:48:36.138Z,5.45
2022-09-02T05:51:05.613Z,4.97
2022-09-02T05:53:36.223Z,5.72
2022-09-02T05:56:06.406Z,5.47
2022-09-02T05:58:40.048Z,5.07
2022-09-02T06:01:11.236Z,4.90
2022-09-02T06:03:41.116Z,5.40
2022-09-02T06:06:10.924Z,5.35
2022-09-02T06:08:41.112Z,4.90
2022-09-02T06:11:13.479Z,5.40
2022-09-02T06:13:43.937Z,5.03
2022-09-02T06:16:15.505Z,4.65
2022-09-02T06:18:44.944Z,5.13
2022-09-02T06:21:20.927Z,5.00
2022-09-02T06:23:52.357Z,4.57
2022-09-02T06:26:20.760Z,4.45
2022-09-02T06:28:50.044Z,4.47
2022-09-02T06:31:20.915Z,4.32
2022-09-02T06:33:56.635Z,4.75
2022-09-02T06:36:28.270Z,4.47
2022-09-02T06:38:59.406Z,4.72
2022-09-02T06:41:30.044Z,4.47
2022-09-02T06:44:04.498Z,4.18
2022-09-02T06:46:40.183Z,4.10
2022-09-02T06:49:10.471Z,4.32
2022-09-02T06:51:41.222Z,4.43
2022-09-02T06:54:15.160Z,3.97
2022-09-02T06:56:49.434Z,3.85
2022-09-02T06:59:22.208Z,4.53
2022-09-02T07:01:54.026Z,4.22
2022-09-02T07:04:42.078Z,4.68
2022-09-02T07:07:13.261Z,3.45
2022-09-02T07:09:46.680Z,4.13
2022-09-02T07:12:19.526Z,4.18
2022-09-02T07:15:07.148Z,3.90
2022-09-02T07:17:39.306Z,3.90
2022-09-02T07:20:12.324Z,3.40
2022-09-02T07:22:45.006Z,3.50
2022-09-02T07:25:16.735Z,5.07
2022-09-02T07:27:45.187Z,3.78
2022-09-02T07:30:15.380Z,3.63
2022-09-02T07:32:49.381Z,3.25
2022-09-02T07:35:19.334Z,3.60
2022-09-02T07:37:49.720Z,3.70
2022-09-02T07:40:17.990Z,3.60
2022-09-02T07:42:47.765Z,3.45
2022-09-02T07:45:19.793Z,3.80
2022-09-02T07:47:49.106Z,3.10
2022-09-02T07:50:20.636Z,3.17
2022-09-02T07:52:53.885Z,3.45
2022-09-02T07:55:22.858Z,3.05
2022-09-02T07:57:53.653Z,3.53
2022-09-02T08:00:27.589Z,3.30
2022-09-02T08:02:58.211Z,3.13
2022-09-02T08:05:32.316Z,3.10
2022-09-02T08:08:01.163Z,2.75
2022-09-02T08:10:31.616Z,2.30
2022-09-02T08:13:01.365Z,3.03
2022-09-02T08:15:31.575Z,2.80
2022-09-02T08:18:00.372Z,2.38
2022-09-02T08:20:30.388Z,2.67
2022-09-02T08:23:10.778Z,2.80
2022-09-02T08:25:40.801Z,2.60
2022-09-02T08:28:11.954Z,2.45
2022-09-02T08:30:43.801Z,2.10
2022-09-02T08:33:11.716Z,2.22
2022-09-02T08:35:40.450Z,2.10
2022-09-02T08:38:08.433Z,2.40
2022-09-02T08:40:38.911Z,2.20
2022-09-02T08:43:24.725Z,2.28
2022-09-02T08:45:56.219Z,2.53
2022-09-02T08:48:33.925Z,2.30
2022-09-02T08:51:06.915Z,1.80
2022-09-02T08:53:41.737Z,1.95
2022-09-02T08:56:12.875Z,1.50
2022-09-02T08:58:46.653Z,1.60
2022-09-02T09:01:26.364Z,1.42
2022-09-02T09:04:18.395Z,1.40
2022-09-02T09:07:00.809Z,1.63
2022-09-02T09:09:48.163Z,1.55
2022-09-02T09:12:25.050Z,1.60
2022-09-02T09:14:59.184Z,1.50
2022-09-02T09:17:33.652Z,1.35
2022-09-02T09:20:07.705Z,1.70
2022-09-02T09:22:42.878Z,1.58
2022-09-02T09:25:15.400Z,1.65
2022-09-02T09:27:46.001Z,1.45
2022-09-02T09:30:15.790Z,1.30
2022-09-02T09:32:48.057Z,1.52
2022-09-02T09:35:17.184Z,1.67
2022-09-02T09:37:48.054Z,1.35
2022-09-02T09:40:27.273Z,1.40
2022-09-02T09:45:35.830Z,1.40
2022-09-02T09:48:28.364Z,1.50
2022-09-02T09:51:15.905Z,1.02
2022-09-02T09:53:44.805Z,1.27
2022-09-02T09:56:40.007Z,1.50
2022-09-02T09:59:10.528Z,1.20
2022-09-02T10:01:38.446Z,1.00
2022-09-02T10:04:26.230Z,1.30
2022-09-02T10:06:57.999Z,1.20
2022-09-02T10:09:32.751Z,1.38
2022-09-02T10:12:03.922Z,1.27
2022-09-02T10:14:36.640Z,1.15
2022-09-02T10:17:17.365Z,1.60
2022-09-02T10:19:53.581Z,1.20
2022-09-02T10:22:37.841Z,1.38
2022-09-02T10:25:33.033Z,1.05
2022-09-02T10:28:10.169Z,1.20
2022-09-02T10:30:45.232Z,1.55
2022-09-02T10:33:25.028Z,1.00
2022-09-02T10:36:00.495Z,1.20
2022-09-02T10:38:41.704Z,1.20
2022-09-02T10:41:27.468Z,1.00
2022-09-02T10:44:25.450Z,6.30
2022-09-02T10:47:00.867Z,2.03
2022-09-02T10:49:45.602Z,1.30
2022-09-02T10:52:40.238Z,1.20
2022-09-02T10:55:16.888Z,1.42
2022-09-02T10:57:51.303Z,1.20
2022-09-02T11:00:20.822Z,1.05
2022-09-02T11:02:52.896Z,0.93
2022-09-02T11:05:24.396Z,0.98
2022-09-02T11:08:00.108Z,0.80
2022-09-02T11:10:32.945Z,1.00
2022-09-02T11:13:06.123Z,1.00
2022-09-02T11:15:45.582Z,1.00
2022-09-02T11:18:20.526Z,0.90
2022-09-02T11:20:56.625Z,1.10
2022-09-02T11:23:35.245Z,0.85
2022-09-02T11:26:08.770Z,1.20
2022-09-02T11:28:43.441Z,0.90
2022-09-02T11:31:20.148Z,1.05
2022-09-02T11:33:55.242Z,1.10
2022-09-02T11:36:23.821Z,1.38
2022-09-02T11:38:58.655Z,1.05
2022-09-02T11:41:39.964Z,1.13
2022-09-02T11:44:32.294Z,1.10
2022-09-02T11:47:10.732Z,0.95
2022-09-02T11:49:56.777Z,1.00
2022-09-02T11:52:35.580Z,0.98
2022-09-02T11:55:13.726Z,1.10
2022-09-02T11:57:41.985Z,1.05
2022-09-02T12:00:29.302Z,1.00
2022-09-02T12:03:22.313Z,0.90
2022-09-02T12:06:13.065Z,1.02
2022-09-02T12:09:06.884Z,1.25
2022-09-02T12:11:42.627Z,1.05
2022-09-02T12:14:13.574Z,1.20
2022-09-02T12:16:46.687Z,0.88
2022-09-02T12:22:23.494Z,0.98
2022-09-02T12:24:53.665Z,1.00
2022-09-02T12:27:28.378Z,0.93
2022-09-02T12:29:58.691Z,1.02
2022-09-02T12:33:09.624Z,1.10
2022-09-02T12:35:57.624Z,1.08
2022-09-02T12:38:41.194Z,1.00
2022-09-02T12:41:24.108Z,0.90
2022-09-02T12:44:05.970Z,1.20
2022-09-02T12:46:54.417Z,1.00
2022-09-02T12:49:36.909Z,0.90
2022-09-02T12:52:07.104Z,1.00
2022-09-02T12:54:47.743Z,1.00
2022-09-02T12:57:17.236Z,0.90
2022-09-02T12:59:48.634Z,0.98
2022-09-02T13:02:30.300Z,1.10
2022-09-02T13:05:15.993Z,1.08
2022-09-02T13:08:28.491Z,1.10
2022-09-02T13:11:36.753Z,1.10
2022-09-02T13:14:34.444Z,1.05
2022-09-02T13:17:37.319Z,0.90
2022-09-02T13:20:34.461Z,1.20
2022-09-02T13:23:19.569Z,1.35
2022-09-02T13:26:49.448Z,1.10
2022-09-02T13:29:49.649Z,0.98
2022-09-02T13:32:25.180Z,0.90
2022-09-02T13:34:57.708Z,1.20
2022-09-02T13:37:33.227Z,0.90
2022-09-02T13:40:05.030Z,0.90
2022-09-02T13:42:33.368Z,1.25
2022-09-02T13:45:12.734Z,1.20
2022-09-02T13:47:45.958Z,1.10
2022-09-02T13:50:17.077Z,1.08
2022-09-02T13:53:45.171Z,0.80
2022-09-02T13:55:37.835Z,1.35
2022-09-02T13:58:18.439Z,1.10
2022-09-02T14:00:46.314Z,1.30
2022-09-02T14:03:18.856Z,1.20
2022-09-02T14:05:49.319Z,1.10
2022-09-02T14:08:22.769Z,1.00
2022-09-02T14:10:52.722Z,1.17
2022-09-02T14:13:21.429Z,1.02
2022-09-02T14:15:49.463Z,1.05
2022-09-02T14:18:20.710Z,1.00
2022-09-02T14:21:01.501Z,1.45
2022-09-02T14:23:33.411Z,1.10
2022-09-02T14:26:02.971Z,1.63
2022-09-02T14:28:32.912Z,1.05
2022-09-02T14:31:03.893Z,1.15
2022-09-02T14:33:46.384Z,1.02
2022-09-02T14:36:33.739Z,1.10
2022-09-02T14:39:13.097Z,1.17
2022-09-02T14:41:46.847Z,1.15
2022-09-02T14:46:47.620Z,1.00
2022-09-02T14:49:23.056Z,1.30
2022-09-02T14:51:53.046Z,1.40
2022-09-02T14:54:39.365Z,1.10
2022-09-02T14:57:22.500Z,1.40
2022-09-02T14:59:50.981Z,1.20
2022-09-02T15:02:30.540Z,1.40
2022-09-02T15:05:01.619Z,1.60
2022-09-02T15:07:29.796Z,1.10
2022-09-02T15:09:57.674Z,1.35
2022-09-02T15:12:29.622Z,1.20
2022-09-02T15:14:58.150Z,1.20
2022-09-02T15:17:27.001Z,1.70
2022-09-02T15:19:54.787Z,1.45
2022-09-02T15:22:25.860Z,1.17
2022-09-02T15:24:53.612Z,1.27
2022-09-02T15:27:21.696Z,1.17
2022-09-02T15:29:49.926Z,1.15
2022-09-02T15:32:18.112Z,1.33
2022-09-02T15:34:45.925Z,1.10
2022-09-02T15:37:13.916Z,1.45
2022-09-02T15:39:43.124Z,1.30
2022-09-02T15:42:11.073Z,1.60
2022-09-02T15:44:38.911Z,1.30
2022-09-02T15:47:08.353Z,1.38
2022-09-02T15:49:36.590Z,1.40
2022-09-02T15:52:06.804Z,1.50
2022-09-02T15:54:34.691Z,1.52
2022-09-02T15:57:03.822Z,1.20
2022-09-02T15:59:31.614Z,1.35
2022-09-02T16:02:00.512Z,1.45
2022-09-02T16:04:29.280Z,1.40
2022-09-02T16:06:57.464Z,1.50
2022-09-02T16:09:25.503Z,1.55
2022-09-02T16:11:55.978Z,1.70
2022-09-02T16:14:25.907Z,1.27
2022-09-02T16:16:57.732Z,1.35
2022-09-02T16:19:29.998Z,1.38
2022-09-02T16:21:58.487Z,1.40
2022-09-02T16:24:26.393Z,1.30
2022-09-02T16:26:54.162Z,1.25
2022-09-02T16:29:27.000Z,1.52
2022-09-02T16:32:14.511Z,1.63
2022-09-02T16:34:46.637Z,1.38
2022-09-02T16:37:14.455Z,2.03
2022-09-02T16:39:42.528Z,1.70
2022-09-02T16:42:10.361Z,1.48
2022-09-02T16:44:41.420Z,1.33
2022-09-02T16:47:12.912Z,1.60
2022-09-02T16:49:41.880Z,1.50
2022-09-02T16:52:09.632Z,1.67
2022-09-02T16:54:40.727Z,1.50
2022-09-02T16:57:09.237Z,1.60
2022-09-02T16:59:37.046Z,1.60
2022-09-02T17:02:04.862Z,1.35
2022-09-02T17:04:34.121Z,1.55
2022-09-02T17:07:01.909Z,1.20
2022-09-02T17:09:29.730Z,1.45
2022-09-02T17:11:57.577Z,1.38
2022-09-02T17:14:25.428Z,1.60
2022-09-02T17:16:53.279Z,1.70
2022-09-02T17:19:22.719Z,1.27
2022-09-02T17:21:53.291Z,1.50
2022-09-02T17:24:23.010Z,1.02
2022-09-02T17:26:54.327Z,1.50
2022-09-02T17:29:47.970Z,1.80
2022-09-02T17:32:11.726Z,1.38
2022-09-02T17:34:39.666Z,1.40
2022-09-02T17:37:08.977Z,1.35
2022-09-02T17:39:36.855Z,1.60
2022-09-02T17:42:06.402Z,1.42
2022-09-02T17:44:36.442Z,1.50
2022-09-02T17:47:06.962Z,1.95
2022-09-02T17:49:36.208Z,1.30
2022-09-02T17:52:14.032Z,1.52
2022-09-02T17:54:43.817Z,1.77
2022-09-02T17:57:29.849Z,1.95
2022-09-02T18:00:07.395Z,1.58
2022-09-02T18:03:22.335Z,1.40
2022-09-02T18:05:57.574Z,1.88
2022-09-02T18:08:33.371Z,1.98
2022-09-02T18:11:05.387Z,1.95
2022-09-02T18:13:40.549Z,1.80
2022-09-02T18:16:23.501Z,2.10
2022-09-02T18:19:02.977Z,2.50
2022-09-02T18:21:42.057Z,2.00
2022-09-02T18:24:19.431Z,2.40
2022-09-02T18:27:01.110Z,2.70
2022-09-02T18:29:47.418Z,2.30
2022-09-02T18:32:26.198Z,2.30
2022-09-02T18:35:06.620Z,2.42
2022-09-02T18:37:46.067Z,2.20
2022-09-02T18:40:24.820Z,2.30
2022-09-02T18:43:07.366Z,2.33
2022-09-02T18:45:43.046Z,1.88
2022-09-02T18:48:14.248Z,1.70
2022-09-02T18:50:53.533Z,1.60
2022-09-02T18:53:23.896Z,1.65
2022-09-02T18:55:53.843Z,1.58
2022-09-02T18:58:34.039Z,1.65
2022-09-02T19:01:07.908Z,1.67
2022-09-02T19:03:37.499Z,1.90
2022-09-02T19:06:08.308Z,1.70
2022-09-02T19:08:37.995Z,1.63
2022-09-02T19:11:08.754Z,1.80
2022-09-02T19:13:46.281Z,1.70
2022-09-02T19:16:16.552Z,1.98
2022-09-02T19:18:44.415Z,2.10
2022-09-02T19:21:14.974Z,1.98
2022-09-02T19:23:43.099Z,1.80
2022-09-02T19:26:10.981Z,1.77
2022-09-02T19:28:41.942Z,2.30
2022-09-02T19:31:18.199Z,2.20
2022-09-02T19:33:46.731Z,1.95
2022-09-02T19:36:18.595Z,2.13
2022-09-02T19:38:46.959Z,2.40
2022-09-02T19:41:15.906Z,1.92
2022-09-02T19:43:45.117Z,1.80
2022-09-02T19:46:34.865Z,1.90
2022-09-02T19:49:00.712Z,2.35
2022-09-02T19:51:28.539Z,2.08
2022-09-02T19:53:56.536Z,2.15
2022-09-02T19:56:24.496Z,2.20
2022-09-02T19:58:53.636Z,2.20
2022-09-02T20:01:21.464Z,2.20
2022-09-02T20:03:49.241Z,1.85
2022-09-02T20:06:17.031Z,1.90
2022-09-02T20:08:44.892Z,2.15
2022-09-02T20:11:12.713Z,2.70
2022-09-02T20:13:41.735Z,2.10
2022-09-02T20:16:18.280Z,2.10
2022-09-02T20:18:48.194Z,2.40
2022-09-02T20:21:22.147Z,2.28
2022-09-02T20:23:49.998Z,2.38
2022-09-02T20:26:29.353Z,2.50
2022-09-02T20:29:14.090Z,2.90
2022-09-02T20:31:59.856Z,2.67
2022-09-02T20:34:41.912Z,2.50
2022-09-02T20:37:22.422Z,2.45
2022-09-02T20:40:08.698Z,2.17
2022-09-02T20:43:28.140Z,2.40
2022-09-02T20:45:59.188Z,2.17
2022-09-02T20:48:44.028Z,2.20
2022-09-02T20:51:18.010Z,2.20
2022-09-02T20:54:01.612Z,2.00
2022-09-02T20:56:42.444Z,2.23
2022-09-02T20:59:18.172Z,2.92
2022-09-02T21:01:46.556Z,2.90
2022-09-02T21:04:29.337Z,3.15
2022-09-02T21:07:02.199Z,2.38
2022-09-02T21:09:49.272Z,1.90
2022-09-02T21:12:32.432Z,2.08
2022-09-02T21:15:10.131Z,2.33
2022-09-02T21:17:48.250Z,2.03
2022-09-02T21:20:23.860Z,2.17
2022-09-02T21:22:56.588Z,2.30
2022-09-02T21:25:28.921Z,2.33
2022-09-02T21:28:03.026Z,2.47
2022-09-02T21:30:38.617Z,2.40
2022-09-02T21:33:09.937Z,2.40
2022-09-02T21:35:42.924Z,1.88
2022-09-02T21:38:15.206Z,1.92
2022-09-02T21:40:54.883Z,1.90
2022-09-02T21:43:33.974Z,1.67
2022-09-02T21:46:11.577Z,1.70
2022-09-02T21:48:56.402Z,3.08
2022-09-02T21:51:30.356Z,3.13
2022-09-02T21:54:25.674Z,1.88
2022-09-02T21:57:10.777Z,2.22
2022-09-02T21:59:52.246Z,2.03
2022-09-02T22:02:30.092Z,1.98
2022-09-02T22:05:04.391Z,1.80
2022-09-02T22:07:39.038Z,2.22
2022-09-02T22:10:13.866Z,1.70
2022-09-02T22:12:48.874Z,2.05
2022-09-02T22:15:27.910Z,1.80
2022-09-02T22:18:08.295Z,1.83
2022-09-02T22:20:44.050Z,2.30
2022-09-02T22:23:23.714Z,1.73
2022-09-02T22:25:52.768Z,1.80
2022-09-02T22:28:28.477Z,2.10
2022-09-02T22:31:00.581Z,1.80
2022-09-02T22:33:33.989Z,2.30
2022-09-02T22:36:11.960Z,2.05
2022-09-02T22:38:47.102Z,2.10
2022-09-02T22:41:24.128Z,1.88
2022-09-02T22:43:57.064Z,2.00
2022-09-02T22:46:48.663Z,1.95
2022-09-02T22:49:43.294Z,2.10
2022-09-02T22:52:40.019Z,1.70
2022-09-02T22:55:15.485Z,2.10
2022-09-02T22:57:56.268Z,2.03
2022-09-02T23:00:26.546Z,1.92
2022-09-02T23:03:05.441Z,1.80
2022-09-02T23:05:46.889Z,1.90
2022-09-02T23:08:17.690Z,1.90
2022-09-02T23:10:54.129Z,1.80
2022-09-02T23:13:33.284Z,2.30
2022-09-02T23:16:11.814Z,2.08
2022-09-02T23:18:52.925Z,2.00
2022-09-02T23:21:30.495Z,2.20
2022-09-02T23:24:09.793Z,1.90
2022-09-02T23:26:50.260Z,1.88
2022-09-02T23:29:23.229Z,2.03
2022-09-02T23:32:09.118Z,1.95
2022-09-02T23:34:53.911Z,2.10
2022-09-02T23:37:35.147Z,1.95
2022-09-02T23:40:15.931Z,1.85
2022-09-02T23:42:45.441Z,2.00
2022-09-02T23:45:24.856Z,2.28
2022-09-02T23:48:20.922Z,2.00
2022-09-02T23:51:05.396Z,2.22
2022-09-02T23:53:40.433Z,1.88
2022-09-02T23:56:19.567Z,1.85
2022-09-02T23:59:03.500Z,1.90
